sensor_id;sensor_type;location;lat;lon;timestamp;P1;durP1;ratioP1;P2;durP2;ratioP2
73456;SDS011;61691;53.072;6.582;2024-02-26T00:00:39;23.27;;;10.48;;
73456;SDS011;61691;53.072;6.582;2024-02-26T00:03:07;23.75;;;10.40;;
73456;SDS011;61691;53.072;6.582;2024-02-26T00:05:34;23.50;;;11.15;;
73456;SDS011;61691;53.072;6.582;2024-02-26T00:08:01;25.65;;;11.15;;
73456;SDS011;61691;53.072;6.582;2024-02-26T00:10:31;22.77;;;10.18;;
73456;SDS011;61691;53.072;6.582;2024-02-26T00:12:58;23.67;;;10.65;;
73456;SDS011;61691;53.072;6.582;2024-02-26T00:15:26;23.15;;;9.80;;
73456;SDS011;61691;53.072;6.582;2024-02-26T00:17:54;23.95;;;10.32;;
73456;SDS011;61691;53.072;6.582;2024-02-26T00:20:21;25.17;;;10.82;;
73456;SDS011;61691;53.072;6.582;2024-02-26T00:22:47;23.25;;;10.45;;
73456;SDS011;61691;53.072;6.582;2024-02-26T00:25:14;23.02;;;10.05;;
73456;SDS011;61691;53.072;6.582;2024-02-26T00:27:41;24.05;;;10.27;;
73456;SDS011;61691;53.072;6.582;2024-02-26T00:30:08;25.00;;;11.50;;
73456;SDS011;61691;53.072;6.582;2024-02-26T00:32:35;25.95;;;11.52;;
73456;SDS011;61691;53.072;6.582;2024-02-26T00:35:02;26.35;;;11.43;;
73456;SDS011;61691;53.072;6.582;2024-02-26T00:37:29;24.67;;;10.80;;
73456;SDS011;61691;53.072;6.582;2024-02-26T00:39:56;25.17;;;11.38;;
73456;SDS011;61691;53.072;6.582;2024-02-26T00:42:22;27.38;;;12.43;;
73456;SDS011;61691;53.072;6.582;2024-02-26T00:44:49;25.88;;;12.43;;
73456;SDS011;61691;53.072;6.582;2024-02-26T00:47:16;25.55;;;12.15;;
73456;SDS011;61691;53.072;6.582;2024-02-26T00:49:43;27.17;;;12.20;;
73456;SDS011;61691;53.072;6.582;2024-02-26T00:52:09;26.98;;;12.32;;
73456;SDS011;61691;53.072;6.582;2024-02-26T00:54:36;29.10;;;13.63;;
73456;SDS011;61691;53.072;6.582;2024-02-26T00:57:03;26.77;;;12.93;;
73456;SDS011;61691;53.072;6.582;2024-02-26T00:59:29;27.73;;;13.10;;
73456;SDS011;61691;53.072;6.582;2024-02-26T01:01:56;33.58;;;14.15;;
73456;SDS011;61691;53.072;6.582;2024-02-26T01:04:24;27.75;;;13.75;;
73456;SDS011;61691;53.072;6.582;2024-02-26T01:06:51;26.38;;;12.32;;
73456;SDS011;61691;53.072;6.582;2024-02-26T01:09:18;29.55;;;13.45;;
73456;SDS011;61691;53.072;6.582;2024-02-26T01:11:45;27.30;;;13.07;;
73456;SDS011;61691;53.072;6.582;2024-02-26T01:14:13;30.05;;;14.25;;
73456;SDS011;61691;53.072;6.582;2024-02-26T01:16:40;29.67;;;13.80;;
73456;SDS011;61691;53.072;6.582;2024-02-26T01:19:06;28.48;;;13.80;;
73456;SDS011;61691;53.072;6.582;2024-02-26T01:21:33;25.60;;;12.88;;
73456;SDS011;61691;53.072;6.582;2024-02-26T01:24:00;28.92;;;13.98;;
73456;SDS011;61691;53.072;6.582;2024-02-26T01:26:27;28.58;;;13.80;;
73456;SDS011;61691;53.072;6.582;2024-02-26T01:28:54;27.45;;;13.43;;
73456;SDS011;61691;53.072;6.582;2024-02-26T01:31:22;29.55;;;12.98;;
73456;SDS011;61691;53.072;6.582;2024-02-26T01:33:48;29.42;;;14.02;;
73456;SDS011;61691;53.072;6.582;2024-02-26T01:36:15;30.40;;;14.55;;
73456;SDS011;61691;53.072;6.582;2024-02-26T01:38:42;28.65;;;13.95;;
73456;SDS011;61691;53.072;6.582;2024-02-26T01:41:09;28.90;;;14.85;;
73456;SDS011;61691;53.072;6.582;2024-02-26T01:43:36;27.30;;;12.25;;
73456;SDS011;61691;53.072;6.582;2024-02-26T01:46:03;28.88;;;13.38;;
73456;SDS011;61691;53.072;6.582;2024-02-26T01:48:30;28.20;;;14.18;;
73456;SDS011;61691;53.072;6.582;2024-02-26T01:50:56;29.08;;;14.50;;
73456;SDS011;61691;53.072;6.582;2024-02-26T01:53:24;28.30;;;13.02;;
73456;SDS011;61691;53.072;6.582;2024-02-26T01:55:51;29.30;;;14.10;;
73456;SDS011;61691;53.072;6.582;2024-02-26T01:58:17;29.20;;;14.35;;
73456;SDS011;61691;53.072;6.582;2024-02-26T02:00:44;27.38;;;14.48;;
73456;SDS011;61691;53.072;6.582;2024-02-26T02:03:11;27.15;;;13.70;;
73456;SDS011;61691;53.072;6.582;2024-02-26T02:05:39;28.92;;;14.77;;
73456;SDS011;61691;53.072;6.582;2024-02-26T02:08:12;26.23;;;13.23;;
73456;SDS011;61691;53.072;6.582;2024-02-26T02:10:43;29.08;;;13.90;;
73456;SDS011;61691;53.072;6.582;2024-02-26T02:13:10;27.42;;;13.48;;
73456;SDS011;61691;53.072;6.582;2024-02-26T02:15:37;28.45;;;13.50;;
73456;SDS011;61691;53.072;6.582;2024-02-26T02:18:04;27.75;;;14.23;;
73456;SDS011;61691;53.072;6.582;2024-02-26T02:20:32;26.30;;;13.25;;
73456;SDS011;61691;53.072;6.582;2024-02-26T02:23:00;26.15;;;12.88;;
73456;SDS011;61691;53.072;6.582;2024-02-26T02:25:27;26.27;;;12.35;;
73456;SDS011;61691;53.072;6.582;2024-02-26T02:27:54;24.58;;;11.07;;
73456;SDS011;61691;53.072;6.582;2024-02-26T02:30:23;24.05;;;12.13;;
73456;SDS011;61691;53.072;6.582;2024-02-26T02:32:53;23.80;;;10.38;;
73456;SDS011;61691;53.072;6.582;2024-02-26T02:35:20;25.75;;;12.15;;
73456;SDS011;61691;53.072;6.582;2024-02-26T02:37:47;23.10;;;10.20;;
73456;SDS011;61691;53.072;6.582;2024-02-26T02:40:14;22.77;;;11.18;;
73456;SDS011;61691;53.072;6.582;2024-02-26T02:42:41;23.45;;;11.30;;
73456;SDS011;61691;53.072;6.582;2024-02-26T02:45:07;23.55;;;10.80;;
73456;SDS011;61691;53.072;6.582;2024-02-26T02:47:37;25.13;;;11.73;;
73456;SDS011;61691;53.072;6.582;2024-02-26T02:50:05;21.67;;;10.63;;
73456;SDS011;61691;53.072;6.582;2024-02-26T02:52:32;23.95;;;10.93;;
73456;SDS011;61691;53.072;6.582;2024-02-26T02:54:58;23.20;;;10.27;;
73456;SDS011;61691;53.072;6.582;2024-02-26T02:57:25;22.02;;;10.10;;
73456;SDS011;61691;53.072;6.582;2024-02-26T02:59:52;21.55;;;9.95;;
73456;SDS011;61691;53.072;6.582;2024-02-26T03:02:19;20.38;;;9.15;;
73456;SDS011;61691;53.072;6.582;2024-02-26T03:04:45;21.02;;;9.80;;
73456;SDS011;61691;53.072;6.582;2024-02-26T03:07:12;21.23;;;8.98;;
73456;SDS011;61691;53.072;6.582;2024-02-26T03:09:39;19.20;;;7.47;;
73456;SDS011;61691;53.072;6.582;2024-02-26T03:12:06;19.58;;;8.27;;
73456;SDS011;61691;53.072;6.582;2024-02-26T03:14:32;20.85;;;9.15;;
73456;SDS011;61691;53.072;6.582;2024-02-26T03:16:59;19.92;;;7.78;;
73456;SDS011;61691;53.072;6.582;2024-02-26T03:19:26;18.20;;;6.93;;
73456;SDS011;61691;53.072;6.582;2024-02-26T03:21:53;18.10;;;7.05;;
73456;SDS011;61691;53.072;6.582;2024-02-26T03:24:20;18.02;;;7.30;;
73456;SDS011;61691;53.072;6.582;2024-02-26T03:26:46;18.70;;;7.10;;
73456;SDS011;61691;53.072;6.582;2024-02-26T03:29:13;17.17;;;6.70;;
73456;SDS011;61691;53.072;6.582;2024-02-26T03:31:40;16.77;;;5.57;;
73456;SDS011;61691;53.072;6.582;2024-02-26T03:34:07;17.92;;;7.25;;
73456;SDS011;61691;53.072;6.582;2024-02-26T03:36:34;17.33;;;6.15;;
73456;SDS011;61691;53.072;6.582;2024-02-26T03:39:00;17.02;;;6.35;;
73456;SDS011;61691;53.072;6.582;2024-02-26T03:41:30;15.07;;;4.78;;
73456;SDS011;61691;53.072;6.582;2024-02-26T03:43:58;16.85;;;6.13;;
73456;SDS011;61691;53.072;6.582;2024-02-26T03:46:25;17.88;;;6.10;;
73456;SDS011;61691;53.072;6.582;2024-02-26T03:48:51;18.83;;;7.15;;
73456;SDS011;61691;53.072;6.582;2024-02-26T03:51:18;19.65;;;6.47;;
73456;SDS011;61691;53.072;6.582;2024-02-26T03:53:45;18.50;;;6.60;;
73456;SDS011;61691;53.072;6.582;2024-02-26T03:56:12;18.15;;;6.72;;
73456;SDS011;61691;53.072;6.582;2024-02-26T03:58:39;18.52;;;6.80;;
73456;SDS011;61691;53.072;6.582;2024-02-26T04:01:09;18.52;;;7.93;;
73456;SDS011;61691;53.072;6.582;2024-02-26T04:03:36;18.48;;;6.95;;
73456;SDS011;61691;53.072;6.582;2024-02-26T04:06:02;18.80;;;6.70;;
73456;SDS011;61691;53.072;6.582;2024-02-26T04:08:30;19.05;;;6.63;;
73456;SDS011;61691;53.072;6.582;2024-02-26T04:10:57;19.02;;;6.90;;
73456;SDS011;61691;53.072;6.582;2024-02-26T04:13:24;19.60;;;6.82;;
73456;SDS011;61691;53.072;6.582;2024-02-26T04:15:51;19.00;;;6.70;;
73456;SDS011;61691;53.072;6.582;2024-02-26T04:18:17;17.88;;;6.10;;
73456;SDS011;61691;53.072;6.582;2024-02-26T04:20:44;17.35;;;6.10;;
73456;SDS011;61691;53.072;6.582;2024-02-26T04:23:11;18.30;;;6.07;;
73456;SDS011;61691;53.072;6.582;2024-02-26T04:25:38;18.30;;;6.18;;
73456;SDS011;61691;53.072;6.582;2024-02-26T04:28:04;18.83;;;6.85;;
73456;SDS011;61691;53.072;6.582;2024-02-26T04:30:31;20.10;;;5.88;;
73456;SDS011;61691;53.072;6.582;2024-02-26T04:32:58;19.75;;;6.65;;
73456;SDS011;61691;53.072;6.582;2024-02-26T04:35:25;19.40;;;6.32;;
73456;SDS011;61691;53.072;6.582;2024-02-26T04:37:51;19.10;;;6.78;;
73456;SDS011;61691;53.072;6.582;2024-02-26T04:40:18;18.13;;;6.22;;
73456;SDS011;61691;53.072;6.582;2024-02-26T04:42:44;19.80;;;6.30;;
73456;SDS011;61691;53.072;6.582;2024-02-26T04:45:11;18.63;;;6.75;;
73456;SDS011;61691;53.072;6.582;2024-02-26T04:47:38;19.58;;;6.85;;
73456;SDS011;61691;53.072;6.582;2024-02-26T04:50:05;20.15;;;6.93;;
73456;SDS011;61691;53.072;6.582;2024-02-26T04:52:32;19.00;;;6.72;;
73456;SDS011;61691;53.072;6.582;2024-02-26T04:54:59;16.45;;;5.43;;
73456;SDS011;61691;53.072;6.582;2024-02-26T04:57:26;17.95;;;5.82;;
73456;SDS011;61691;53.072;6.582;2024-02-26T04:59:53;17.30;;;5.57;;
73456;SDS011;61691;53.072;6.582;2024-02-26T05:02:19;20.23;;;6.38;;
73456;SDS011;61691;53.072;6.582;2024-02-26T05:04:46;23.63;;;6.57;;
73456;SDS011;61691;53.072;6.582;2024-02-26T05:07:13;18.70;;;5.28;;
73456;SDS011;61691;53.072;6.582;2024-02-26T05:09:40;17.52;;;5.55;;
73456;SDS011;61691;53.072;6.582;2024-02-26T05:12:08;20.88;;;6.13;;
73456;SDS011;61691;53.072;6.582;2024-02-26T05:14:35;20.52;;;5.55;;
73456;SDS011;61691;53.072;6.582;2024-02-26T05:17:02;23.73;;;6.50;;
73456;SDS011;61691;53.072;6.582;2024-02-26T05:19:29;16.80;;;5.50;;
73456;SDS011;61691;53.072;6.582;2024-02-26T05:21:56;16.15;;;4.93;;
73456;SDS011;61691;53.072;6.582;2024-02-26T05:24:23;16.65;;;5.32;;
73456;SDS011;61691;53.072;6.582;2024-02-26T05:26:50;17.98;;;5.10;;
73456;SDS011;61691;53.072;6.582;2024-02-26T05:29:16;18.63;;;5.25;;
73456;SDS011;61691;53.072;6.582;2024-02-26T05:31:43;17.63;;;5.32;;
73456;SDS011;61691;53.072;6.582;2024-02-26T05:34:10;16.90;;;5.18;;
73456;SDS011;61691;53.072;6.582;2024-02-26T05:36:37;17.65;;;5.10;;
73456;SDS011;61691;53.072;6.582;2024-02-26T05:39:04;17.70;;;5.57;;
73456;SDS011;61691;53.072;6.582;2024-02-26T05:41:30;16.48;;;5.10;;
73456;SDS011;61691;53.072;6.582;2024-02-26T05:43:57;17.05;;;4.68;;
73456;SDS011;61691;53.072;6.582;2024-02-26T05:46:24;15.90;;;4.75;;
73456;SDS011;61691;53.072;6.582;2024-02-26T05:48:51;16.52;;;4.90;;
73456;SDS011;61691;53.072;6.582;2024-02-26T05:51:20;14.82;;;3.85;;
73456;SDS011;61691;53.072;6.582;2024-02-26T05:53:47;15.00;;;4.15;;
73456;SDS011;61691;53.072;6.582;2024-02-26T05:56:23;15.73;;;4.45;;
73456;SDS011;61691;53.072;6.582;2024-02-26T05:58:50;14.60;;;4.27;;
73456;SDS011;61691;53.072;6.582;2024-02-26T06:01:18;14.07;;;3.40;;
73456;SDS011;61691;53.072;6.582;2024-02-26T06:03:44;14.55;;;3.95;;
73456;SDS011;61691;53.072;6.582;2024-02-26T06:06:11;13.77;;;3.67;;
73456;SDS011;61691;53.072;6.582;2024-02-26T06:08:39;13.05;;;3.35;;
73456;SDS011;61691;53.072;6.582;2024-02-26T06:11:06;17.00;;;4.07;;
73456;SDS011;61691;53.072;6.582;2024-02-26T06:13:34;15.32;;;3.83;;
73456;SDS011;61691;53.072;6.582;2024-02-26T06:16:01;14.38;;;3.53;;
73456;SDS011;61691;53.072;6.582;2024-02-26T06:18:28;12.63;;;3.33;;
73456;SDS011;61691;53.072;6.582;2024-02-26T06:20:55;12.23;;;3.17;;
73456;SDS011;61691;53.072;6.582;2024-02-26T06:23:22;13.98;;;3.60;;
73456;SDS011;61691;53.072;6.582;2024-02-26T06:25:49;13.93;;;3.42;;
73456;SDS011;61691;53.072;6.582;2024-02-26T06:28:15;11.40;;;3.03;;
73456;SDS011;61691;53.072;6.582;2024-02-26T06:30:42;15.52;;;3.70;;
73456;SDS011;61691;53.072;6.582;2024-02-26T06:33:09;13.95;;;3.67;;
73456;SDS011;61691;53.072;6.582;2024-02-26T06:35:37;15.43;;;3.92;;
73456;SDS011;61691;53.072;6.582;2024-02-26T06:38:04;14.77;;;3.83;;
73456;SDS011;61691;53.072;6.582;2024-02-26T06:40:31;13.18;;;3.55;;
73456;SDS011;61691;53.072;6.582;2024-02-26T06:42:57;14.23;;;3.70;;
73456;SDS011;61691;53.072;6.582;2024-02-26T06:45:24;14.52;;;4.20;;
73456;SDS011;61691;53.072;6.582;2024-02-26T06:47:51;14.82;;;4.15;;
73456;SDS011;61691;53.072;6.582;2024-02-26T06:50:18;13.93;;;3.55;;
73456;SDS011;61691;53.072;6.582;2024-02-26T06:52:44;13.32;;;3.78;;
73456;SDS011;61691;53.072;6.582;2024-02-26T06:55:12;18.30;;;5.35;;
73456;SDS011;61691;53.072;6.582;2024-02-26T06:57:40;15.82;;;4.20;;
73456;SDS011;61691;53.072;6.582;2024-02-26T07:00:06;15.35;;;4.50;;
73456;SDS011;61691;53.072;6.582;2024-02-26T07:02:34;16.13;;;4.70;;
73456;SDS011;61691;53.072;6.582;2024-02-26T07:05:05;16.35;;;5.10;;
73456;SDS011;61691;53.072;6.582;2024-02-26T07:07:32;14.85;;;4.00;;
73456;SDS011;61691;53.072;6.582;2024-02-26T07:09:58;15.55;;;4.63;;
73456;SDS011;61691;53.072;6.582;2024-02-26T07:12:25;15.85;;;4.25;;
73456;SDS011;61691;53.072;6.582;2024-02-26T07:14:52;17.25;;;4.03;;
73456;SDS011;61691;53.072;6.582;2024-02-26T07:17:18;14.88;;;4.40;;
73456;SDS011;61691;53.072;6.582;2024-02-26T07:19:45;15.90;;;4.78;;
73456;SDS011;61691;53.072;6.582;2024-02-26T07:22:12;14.88;;;3.95;;
73456;SDS011;61691;53.072;6.582;2024-02-26T07:24:40;13.30;;;3.90;;
73456;SDS011;61691;53.072;6.582;2024-02-26T07:27:06;14.30;;;4.32;;
73456;SDS011;61691;53.072;6.582;2024-02-26T07:29:33;13.10;;;3.55;;
73456;SDS011;61691;53.072;6.582;2024-02-26T07:32:00;15.52;;;4.25;;
73456;SDS011;61691;53.072;6.582;2024-02-26T07:34:27;15.50;;;5.15;;
73456;SDS011;61691;53.072;6.582;2024-02-26T07:36:56;15.00;;;4.18;;
73456;SDS011;61691;53.072;6.582;2024-02-26T07:39:23;16.23;;;4.55;;
73456;SDS011;61691;53.072;6.582;2024-02-26T07:41:50;14.65;;;4.28;;
73456;SDS011;61691;53.072;6.582;2024-02-26T07:44:19;15.13;;;4.32;;
73456;SDS011;61691;53.072;6.582;2024-02-26T07:46:46;18.40;;;7.35;;
73456;SDS011;61691;53.072;6.582;2024-02-26T07:49:13;13.80;;;3.90;;
73456;SDS011;61691;53.072;6.582;2024-02-26T07:51:40;14.00;;;4.20;;
73456;SDS011;61691;53.072;6.582;2024-02-26T07:54:07;13.50;;;3.63;;
73456;SDS011;61691;53.072;6.582;2024-02-26T07:56:34;14.07;;;3.80;;
73456;SDS011;61691;53.072;6.582;2024-02-26T07:59:01;14.10;;;3.83;;
73456;SDS011;61691;53.072;6.582;2024-02-26T08:01:28;15.05;;;4.05;;
73456;SDS011;61691;53.072;6.582;2024-02-26T08:03:54;14.63;;;3.65;;
73456;SDS011;61691;53.072;6.582;2024-02-26T08:06:22;13.63;;;4.15;;
73456;SDS011;61691;53.072;6.582;2024-02-26T08:08:50;13.55;;;3.67;;
73456;SDS011;61691;53.072;6.582;2024-02-26T08:11:17;17.75;;;3.95;;
73456;SDS011;61691;53.072;6.582;2024-02-26T08:13:43;14.82;;;3.80;;
73456;SDS011;61691;53.072;6.582;2024-02-26T08:16:10;15.73;;;3.78;;
73456;SDS011;61691;53.072;6.582;2024-02-26T08:18:38;15.52;;;4.05;;
73456;SDS011;61691;53.072;6.582;2024-02-26T08:21:05;13.75;;;3.60;;
73456;SDS011;61691;53.072;6.582;2024-02-26T08:23:32;14.63;;;3.78;;
73456;SDS011;61691;53.072;6.582;2024-02-26T08:25:59;13.82;;;3.42;;
73456;SDS011;61691;53.072;6.582;2024-02-26T08:28:25;12.77;;;3.22;;
73456;SDS011;61691;53.072;6.582;2024-02-26T08:30:52;13.27;;;3.50;;
73456;SDS011;61691;53.072;6.582;2024-02-26T08:33:19;14.50;;;3.70;;
73456;SDS011;61691;53.072;6.582;2024-02-26T08:35:46;13.13;;;3.60;;
73456;SDS011;61691;53.072;6.582;2024-02-26T08:38:12;12.43;;;3.20;;
73456;SDS011;61691;53.072;6.582;2024-02-26T08:40:39;15.43;;;3.95;;
73456;SDS011;61691;53.072;6.582;2024-02-26T08:43:06;12.85;;;3.50;;
73456;SDS011;61691;53.072;6.582;2024-02-26T08:45:33;14.88;;;3.83;;
73456;SDS011;61691;53.072;6.582;2024-02-26T08:47:59;15.45;;;4.03;;
73456;SDS011;61691;53.072;6.582;2024-02-26T08:50:26;13.07;;;3.25;;
73456;SDS011;61691;53.072;6.582;2024-02-26T08:52:53;13.07;;;3.38;;
73456;SDS011;61691;53.072;6.582;2024-02-26T08:55:20;13.95;;;3.50;;
73456;SDS011;61691;53.072;6.582;2024-02-26T08:57:47;13.82;;;3.30;;
73456;SDS011;61691;53.072;6.582;2024-02-26T09:00:14;12.75;;;3.55;;
73456;SDS011;61691;53.072;6.582;2024-02-26T09:02:44;13.23;;;3.40;;
73456;SDS011;61691;53.072;6.582;2024-02-26T09:05:11;14.02;;;3.78;;
73456;SDS011;61691;53.072;6.582;2024-02-26T09:07:37;13.70;;;3.63;;
73456;SDS011;61691;53.072;6.582;2024-02-26T09:10:05;15.07;;;3.58;;
73456;SDS011;61691;53.072;6.582;2024-02-26T09:12:32;15.65;;;4.30;;
73456;SDS011;61691;53.072;6.582;2024-02-26T09:14:59;15.57;;;4.25;;
73456;SDS011;61691;53.072;6.582;2024-02-26T09:17:26;14.15;;;4.00;;
73456;SDS011;61691;53.072;6.582;2024-02-26T09:19:52;14.02;;;3.70;;
73456;SDS011;61691;53.072;6.582;2024-02-26T09:22:19;15.48;;;3.80;;
73456;SDS011;61691;53.072;6.582;2024-02-26T09:24:46;15.60;;;4.05;;
73456;SDS011;61691;53.072;6.582;2024-02-26T09:27:12;15.30;;;3.83;;
73456;SDS011;61691;53.072;6.582;2024-02-26T09:29:39;14.32;;;4.22;;
73456;SDS011;61691;53.072;6.582;2024-02-26T09:32:06;14.07;;;3.85;;
73456;SDS011;61691;53.072;6.582;2024-02-26T09:34:33;16.20;;;4.68;;
73456;SDS011;61691;53.072;6.582;2024-02-26T09:37:00;13.18;;;3.70;;
73456;SDS011;61691;53.072;6.582;2024-02-26T09:39:40;15.65;;;4.10;;
73456;SDS011;61691;53.072;6.582;2024-02-26T09:42:07;15.80;;;4.10;;
73456;SDS011;61691;53.072;6.582;2024-02-26T09:44:37;14.02;;;3.72;;
73456;SDS011;61691;53.072;6.582;2024-02-26T09:47:09;15.02;;;3.80;;
73456;SDS011;61691;53.072;6.582;2024-02-26T09:49:37;14.68;;;4.25;;
73456;SDS011;61691;53.072;6.582;2024-02-26T09:52:05;14.57;;;3.97;;
73456;SDS011;61691;53.072;6.582;2024-02-26T09:54:32;13.32;;;3.65;;
73456;SDS011;61691;53.072;6.582;2024-02-26T09:57:00;14.18;;;3.83;;
73456;SDS011;61691;53.072;6.582;2024-02-26T09:59:39;13.65;;;3.78;;
73456;SDS011;61691;53.072;6.582;2024-02-26T10:02:13;14.02;;;3.70;;
73456;SDS011;61691;53.072;6.582;2024-02-26T10:04:40;12.63;;;3.30;;
73456;SDS011;61691;53.072;6.582;2024-02-26T10:07:13;13.38;;;3.72;;
73456;SDS011;61691;53.072;6.582;2024-02-26T10:09:40;14.50;;;4.63;;
73456;SDS011;61691;53.072;6.582;2024-02-26T10:12:10;13.20;;;3.47;;
73456;SDS011;61691;53.072;6.582;2024-02-26T10:14:42;13.90;;;3.45;;
73456;SDS011;61691;53.072;6.582;2024-02-26T10:17:09;13.57;;;4.07;;
73456;SDS011;61691;53.072;6.582;2024-02-26T10:19:36;11.45;;;3.53;;
73456;SDS011;61691;53.072;6.582;2024-02-26T10:22:05;12.05;;;3.30;;
73456;SDS011;61691;53.072;6.582;2024-02-26T10:24:32;12.50;;;3.80;;
73456;SDS011;61691;53.072;6.582;2024-02-26T10:26:59;13.02;;;3.40;;
73456;SDS011;61691;53.072;6.582;2024-02-26T10:29:26;12.25;;;3.30;;
73456;SDS011;61691;53.072;6.582;2024-02-26T10:31:52;11.90;;;2.90;;
73456;SDS011;61691;53.072;6.582;2024-02-26T10:34:19;10.35;;;2.70;;
73456;SDS011;61691;53.072;6.582;2024-02-26T10:36:47;12.23;;;3.20;;
73456;SDS011;61691;53.072;6.582;2024-02-26T10:39:19;14.60;;;3.28;;
73456;SDS011;61691;53.072;6.582;2024-02-26T10:41:48;10.65;;;2.80;;
73456;SDS011;61691;53.072;6.582;2024-02-26T10:44:15;9.82;;;2.65;;
73456;SDS011;61691;53.072;6.582;2024-02-26T10:46:46;10.93;;;2.47;;
73456;SDS011;61691;53.072;6.582;2024-02-26T10:49:14;11.73;;;3.20;;
73456;SDS011;61691;53.072;6.582;2024-02-26T10:51:49;12.63;;;3.20;;
73456;SDS011;61691;53.072;6.582;2024-02-26T10:54:21;12.63;;;3.17;;
73456;SDS011;61691;53.072;6.582;2024-02-26T10:56:52;12.85;;;3.42;;
73456;SDS011;61691;53.072;6.582;2024-02-26T10:59:21;14.38;;;4.18;;
73456;SDS011;61691;53.072;6.582;2024-02-26T11:01:48;12.38;;;3.40;;
73456;SDS011;61691;53.072;6.582;2024-02-26T11:04:16;12.98;;;3.30;;
73456;SDS011;61691;53.072;6.582;2024-02-26T11:06:44;12.52;;;3.45;;
73456;SDS011;61691;53.072;6.582;2024-02-26T11:09:12;12.57;;;3.30;;
73456;SDS011;61691;53.072;6.582;2024-02-26T11:11:40;11.35;;;3.17;;
73456;SDS011;61691;53.072;6.582;2024-02-26T11:14:08;13.55;;;3.50;;
73456;SDS011;61691;53.072;6.582;2024-02-26T11:16:36;12.15;;;3.80;;
73456;SDS011;61691;53.072;6.582;2024-02-26T11:19:06;13.70;;;3.33;;
73456;SDS011;61691;53.072;6.582;2024-02-26T11:21:35;12.52;;;3.17;;
73456;SDS011;61691;53.072;6.582;2024-02-26T11:24:08;11.18;;;2.95;;
73456;SDS011;61691;53.072;6.582;2024-02-26T11:26:54;10.20;;;2.75;;
73456;SDS011;61691;53.072;6.582;2024-02-26T11:29:32;11.82;;;2.92;;
73456;SDS011;61691;53.072;6.582;2024-02-26T11:32:03;11.70;;;3.08;;
73456;SDS011;61691;53.072;6.582;2024-02-26T11:34:32;11.73;;;2.65;;
73456;SDS011;61691;53.072;6.582;2024-02-26T11:37:08;10.73;;;2.92;;
73456;SDS011;61691;53.072;6.582;2024-02-26T11:39:41;12.38;;;2.92;;
73456;SDS011;61691;53.072;6.582;2024-02-26T11:42:09;8.20;;;2.40;;
73456;SDS011;61691;53.072;6.582;2024-02-26T11:44:37;11.38;;;2.80;;
73456;SDS011;61691;53.072;6.582;2024-02-26T11:47:11;11.27;;;2.60;;
73456;SDS011;61691;53.072;6.582;2024-02-26T11:49:38;8.57;;;2.50;;
73456;SDS011;61691;53.072;6.582;2024-02-26T11:52:09;10.25;;;2.65;;
73456;SDS011;61691;53.072;6.582;2024-02-26T11:57:24;10.05;;;2.75;;
73456;SDS011;61691;53.072;6.582;2024-02-26T12:02:44;9.93;;;3.20;;
73456;SDS011;61691;53.072;6.582;2024-02-26T12:05:19;12.30;;;2.90;;
73456;SDS011;61691;53.072;6.582;2024-02-26T12:07:53;11.05;;;2.58;;
73456;SDS011;61691;53.072;6.582;2024-02-26T12:10:25;11.95;;;2.80;;
73456;SDS011;61691;53.072;6.582;2024-02-26T12:13:07;12.00;;;2.85;;
73456;SDS011;61691;53.072;6.582;2024-02-26T12:15:39;14.63;;;3.05;;
73456;SDS011;61691;53.072;6.582;2024-02-26T12:18:08;14.20;;;3.03;;
73456;SDS011;61691;53.072;6.582;2024-02-26T12:20:38;11.05;;;2.95;;
73456;SDS011;61691;53.072;6.582;2024-02-26T12:23:05;13.85;;;3.13;;
73456;SDS011;61691;53.072;6.582;2024-02-26T12:25:32;12.32;;;3.25;;
73456;SDS011;61691;53.072;6.582;2024-02-26T12:27:59;12.32;;;3.10;;
73456;SDS011;61691;53.072;6.582;2024-02-26T12:30:26;14.55;;;3.97;;
73456;SDS011;61691;53.072;6.582;2024-02-26T12:32:56;12.45;;;3.40;;
73456;SDS011;61691;53.072;6.582;2024-02-26T12:35:24;14.18;;;3.88;;
73456;SDS011;61691;53.072;6.582;2024-02-26T12:37:51;17.23;;;3.67;;
73456;SDS011;61691;53.072;6.582;2024-02-26T12:40:20;13.43;;;3.47;;
73456;SDS011;61691;53.072;6.582;2024-02-26T12:42:47;13.82;;;3.72;;
73456;SDS011;61691;53.072;6.582;2024-02-26T12:45:15;14.63;;;4.43;;
73456;SDS011;61691;53.072;6.582;2024-02-26T12:47:43;15.23;;;4.32;;
73456;SDS011;61691;53.072;6.582;2024-02-26T12:50:12;15.10;;;3.70;;
73456;SDS011;61691;53.072;6.582;2024-02-26T12:52:40;14.32;;;4.15;;
73456;SDS011;61691;53.072;6.582;2024-02-26T12:55:09;15.13;;;4.17;;
73456;SDS011;61691;53.072;6.582;2024-02-26T12:57:40;16.48;;;4.10;;
73456;SDS011;61691;53.072;6.582;2024-02-26T13:00:11;15.52;;;4.40;;
73456;SDS011;61691;53.072;6.582;2024-02-26T13:02:41;15.50;;;4.35;;
73456;SDS011;61691;53.072;6.582;2024-02-26T13:05:11;15.17;;;4.73;;
73456;SDS011;61691;53.072;6.582;2024-02-26T13:07:42;15.70;;;4.70;;
73456;SDS011;61691;53.072;6.582;2024-02-26T13:12:44;16.17;;;5.30;;
73456;SDS011;61691;53.072;6.582;2024-02-26T13:15:17;15.57;;;4.40;;
73456;SDS011;61691;53.072;6.582;2024-02-26T13:17:46;15.88;;;5.35;;
73456;SDS011;61691;53.072;6.582;2024-02-26T13:20:24;20.02;;;5.50;;
73456;SDS011;61691;53.072;6.582;2024-02-26T13:23:05;16.35;;;5.53;;
73456;SDS011;61691;53.072;6.582;2024-02-26T13:25:33;16.45;;;5.55;;
73456;SDS011;61691;53.072;6.582;2024-02-26T13:28:08;16.13;;;5.10;;
73456;SDS011;61691;53.072;6.582;2024-02-26T13:30:36;16.95;;;5.78;;
73456;SDS011;61691;53.072;6.582;2024-02-26T13:33:12;16.92;;;5.60;;
73456;SDS011;61691;53.072;6.582;2024-02-26T13:35:40;16.20;;;5.97;;
73456;SDS011;61691;53.072;6.582;2024-02-26T13:38:07;16.75;;;5.65;;
73456;SDS011;61691;53.072;6.582;2024-02-26T13:40:34;16.27;;;4.93;;
73456;SDS011;61691;53.072;6.582;2024-02-26T13:43:01;18.38;;;6.30;;
73456;SDS011;61691;53.072;6.582;2024-02-26T13:45:28;16.45;;;4.65;;
73456;SDS011;61691;53.072;6.582;2024-02-26T13:48:01;17.33;;;5.75;;
73456;SDS011;61691;53.072;6.582;2024-02-26T13:50:30;16.45;;;5.45;;
73456;SDS011;61691;53.072;6.582;2024-02-26T13:52:57;17.98;;;6.45;;
73456;SDS011;61691;53.072;6.582;2024-02-26T13:55:27;17.92;;;6.00;;
73456;SDS011;61691;53.072;6.582;2024-02-26T13:57:56;17.70;;;6.28;;
73456;SDS011;61691;53.072;6.582;2024-02-26T14:00:24;17.52;;;6.18;;
73456;SDS011;61691;53.072;6.582;2024-02-26T14:02:51;17.70;;;5.55;;
73456;SDS011;61691;53.072;6.582;2024-02-26T14:05:18;17.80;;;6.03;;
73456;SDS011;61691;53.072;6.582;2024-02-26T14:07:44;17.05;;;6.15;;
73456;SDS011;61691;53.072;6.582;2024-02-26T14:10:14;17.98;;;6.18;;
73456;SDS011;61691;53.072;6.582;2024-02-26T14:12:42;19.75;;;6.15;;
73456;SDS011;61691;53.072;6.582;2024-02-26T14:15:09;18.58;;;6.25;;
73456;SDS011;61691;53.072;6.582;2024-02-26T14:17:37;17.63;;;5.75;;
73456;SDS011;61691;53.072;6.582;2024-02-26T14:20:04;17.33;;;6.07;;
73456;SDS011;61691;53.072;6.582;2024-02-26T14:22:31;19.98;;;7.63;;
73456;SDS011;61691;53.072;6.582;2024-02-26T14:24:58;17.50;;;6.50;;
73456;SDS011;61691;53.072;6.582;2024-02-26T14:27:25;19.05;;;6.90;;
73456;SDS011;61691;53.072;6.582;2024-02-26T14:29:53;19.63;;;7.40;;
73456;SDS011;61691;53.072;6.582;2024-02-26T14:32:21;18.35;;;6.30;;
73456;SDS011;61691;53.072;6.582;2024-02-26T14:34:48;18.20;;;5.88;;
73456;SDS011;61691;53.072;6.582;2024-02-26T14:37:15;18.77;;;6.32;;
73456;SDS011;61691;53.072;6.582;2024-02-26T14:39:42;19.90;;;6.35;;
73456;SDS011;61691;53.072;6.582;2024-02-26T14:42:09;20.55;;;6.50;;